createdAt,value
2017-03-24T00:03:01.932Z,93.70
2017-03-24T00:07:58.284Z,93.89
2017-03-24T00:12:55.548Z,94.56
2017-03-24T00:17:51.915Z,93.79
2017-03-24T00:22:49.810Z,94.27
2017-03-24T00:27:46.059Z,93.51
2017-03-24T00:32:47.490Z,93.32
2017-03-24T00:37:42.811Z,93.41
2017-03-24T00:42:39.301Z,93.41
2017-03-24T00:47:35.797Z,93.32
2017-03-24T00:52:32.425Z,93.60
2017-03-24T00:57:28.766Z,93.32
2017-03-24T01:02:25.272Z,93.41
2017-03-24T01:07:21.791Z,93.23
2017-03-24T01:12:18.051Z,93.41
2017-03-24T01:17:14.422Z,92.85
2017-03-24T01:22:10.735Z,92.56
2017-03-24T01:27:07.220Z,92.56
2017-03-24T01:32:04.073Z,92.18
2017-03-24T01:37:00.527Z,92.37
2017-03-24T01:41:57.257Z,92.18
2017-03-24T01:46:53.722Z,92.27
2017-03-24T01:51:50.060Z,92.37
2017-03-24T01:56:46.845Z,92.56
2017-03-24T02:01:43.214Z,92.18
2017-03-24T02:06:40.297Z,93.60
2017-03-24T02:11:36.914Z,93.41
2017-03-24T02:16:33.381Z,92.85
2017-03-24T02:21:29.735Z,92.75
2017-03-24T02:26:26.196Z,92.08
2017-03-24T02:31:22.636Z,92.27
2017-03-24T02:36:19.221Z,91.80
2017-03-24T02:41:15.482Z,91.61
2017-03-24T02:46:12.185Z,90.28
2017-03-24T02:51:08.157Z,90.66
2017-03-24T02:56:04.576Z,90.47
2017-03-24T03:01:01.357Z,89.90
2017-03-24T03:05:57.812Z,90.28
2017-03-24T03:10:54.204Z,90.75
2017-03-24T03:15:51.480Z,90.37
2017-03-24T03:20:47.665Z,90.66
2017-03-24T03:25:44.085Z,89.33
2017-03-24T03:30:41.434Z,90.37
2017-03-24T03:35:39.295Z,89.90
2017-03-24T03:40:35.412Z,89.86
2017-03-24T03:45:31.924Z,89.76
2017-03-24T03:50:28.315Z,89.57
2017-03-24T03:55:24.779Z,89.28
2017-03-24T04:00:21.920Z,89.52
2017-03-24T04:05:18.255Z,89.28
2017-03-24T04:10:14.679Z,89.61
2017-03-24T04:15:11.039Z,88.53
2017-03-24T04:20:07.490Z,88.05
2017-03-24T04:25:04.640Z,88.43
2017-03-24T04:30:01.001Z,90.71
2017-03-24T04:34:57.669Z,91.19
2017-03-24T04:39:53.781Z,92.56
2017-03-24T04:44:50.128Z,93.32
2017-03-24T04:49:46.308Z,94.08
2017-03-24T04:54:43.320Z,93.99
2017-03-24T04:59:39.780Z,93.51
2017-03-24T05:04:36.225Z,93.32
2017-03-24T05:09:32.700Z,93.60
2017-03-24T05:14:29.101Z,93.99
2017-03-24T05:19:25.585Z,93.60
2017-03-24T05:29:23.447Z,94.08
2017-03-24T05:34:19.633Z,93.60
2017-03-24T05:39:16.910Z,94.18
2017-03-24T05:44:13.382Z,94.27
2017-03-24T05:49:10.543Z,94.27
2017-03-24T05:54:07.157Z,94.56
2017-03-24T05:59:03.541Z,94.56
2017-03-24T06:03:59.951Z,94.46
2017-03-24T06:08:58.357Z,94.27
2017-03-24T06:13:54.585Z,94.27
2017-03-24T06:18:51.284Z,91.38
2017-03-24T06:23:48.678Z,91.56
2017-03-24T06:28:45.112Z,92.18
2017-03-24T06:33:41.734Z,92.85
2017-03-24T06:38:40.246Z,92.61
2017-03-24T06:43:36.606Z,88.13
2017-03-24T06:48:33.162Z,87.43
2017-03-24T06:53:29.960Z,87.90
2017-03-24T06:58:26.803Z,85.66
2017-03-24T07:03:23.388Z,86.61
2017-03-24T07:08:19.910Z,87.34
2017-03-24T07:13:16.795Z,86.43
2017-03-24T07:18:14.257Z,86.95
2017-03-24T07:23:10.377Z,89.19
2017-03-24T07:28:06.809Z,90.05
2017-03-24T07:33:03.070Z,88.57
2017-03-24T07:37:59.731Z,86.24
2017-03-24T07:42:56.503Z,85.57
2017-03-24T07:47:52.951Z,84.28
2017-03-24T07:52:50.116Z,81.09
2017-03-24T07:57:47.183Z,79.51
2017-03-24T08:02:43.982Z,81.09
2017-03-24T08:07:41.199Z,79.32
2017-03-24T08:12:38.308Z,77.51
2017-03-24T08:17:34.466Z,76.79
2017-03-24T08:22:31.269Z,74.82
2017-03-24T08:27:29.592Z,71.87
2017-03-24T08:32:26.551Z,76.40
2017-03-24T08:37:23.872Z,75.74
2017-03-24T08:42:20.069Z,76.94
2017-03-24T08:47:16.486Z,77.61
2017-03-24T08:52:13.425Z,78.52
2017-03-24T08:57:10.085Z,79.38
2017-03-24T09:02:06.411Z,80.47
2017-03-24T09:07:03.714Z,80.86
2017-03-24T09:11:59.861Z,80.52
2017-03-24T09:16:56.358Z,78.71
2017-03-24T09:21:53.710Z,78.71
2017-03-24T09:26:50.900Z,77.95
2017-03-24T09:31:47.389Z,76.65
2017-03-24T09:36:43.895Z,74.88
2017-03-24T09:41:41.587Z,71.07
2017-03-24T09:46:37.722Z,70.12
2017-03-24T09:51:34.573Z,71.45
2017-03-24T09:56:31.353Z,72.37
2017-03-24T10:01:28.516Z,67.71
2017-03-24T10:06:25.424Z,67.99
2017-03-24T10:11:22.088Z,65.17
2017-03-24T10:16:19.210Z,64.21
2017-03-24T10:21:15.788Z,65.99
2017-03-24T10:26:12.537Z,64.12
2017-03-24T10:31:09.489Z,61.76
2017-03-24T10:36:06.225Z,59.41
2017-03-24T10:41:03.661Z,61.54
2017-03-24T10:45:59.764Z,63.73
2017-03-24T10:50:57.952Z,59.31
2017-03-24T10:55:55.565Z,59.05
2017-03-24T11:00:53.543Z,56.40
2017-03-24T11:05:51.422Z,52.92
2017-03-24T11:10:49.399Z,50.36
2017-03-24T11:15:46.698Z,52.89
2017-03-24T11:20:43.501Z,50.26
2017-03-24T11:25:39.844Z,54.66
2017-03-24T11:30:36.420Z,50.81
2017-03-24T11:35:33.731Z,45.57
2017-03-24T11:40:31.172Z,46.65
2017-03-24T11:45:27.516Z,49.60
2017-03-24T11:50:24.554Z,46.89
2017-03-24T11:55:22.293Z,44.06
2017-03-24T12:00:19.299Z,52.01
2017-03-24T12:05:14.528Z,50.17
2017-03-24T12:10:11.463Z,46.10
2017-03-24T12:15:08.518Z,46.84
2017-03-24T12:20:06.324Z,50.50
2017-03-24T12:25:02.872Z,46.36
2017-03-24T12:29:59.979Z,43.94
2017-03-24T12:34:56.314Z,46.65
2017-03-24T12:39:52.324Z,46.82
2017-03-24T12:44:48.937Z,48.93
2017-03-24T12:49:45.405Z,48.30
2017-03-24T12:54:40.409Z,51.72
2017-03-24T12:59:35.689Z,51.62
2017-03-24T13:04:31.541Z,51.53
2017-03-24T13:09:27.376Z,49.74
2017-03-24T13:14:23.383Z,51.41
2017-03-24T13:19:20.631Z,50.12
2017-03-24T13:24:17.818Z,49.35
2017-03-24T13:29:16.467Z,48.78
2017-03-24T13:34:13.154Z,49.64
2017-03-24T13:39:10.030Z,48.88
2017-03-24T13:44:08.379Z,51.24
2017-03-24T13:49:03.571Z,51.53
2017-03-24T13:53:59.771Z,50.50
2017-03-24T13:58:57.037Z,47.94
2017-03-24T14:03:54.306Z,48.49
2017-03-24T14:08:51.191Z,47.53
2017-03-24T14:13:47.767Z,49.07
2017-03-24T14:18:43.910Z,49.84
2017-03-24T14:23:40.640Z,49.93
2017-03-24T14:28:36.558Z,49.14
2017-03-24T14:33:33.019Z,48.11
2017-03-24T14:38:30.243Z,47.66
2017-03-24T14:43:27.603Z,48.59
2017-03-24T14:48:24.223Z,50.45
2017-03-24T14:53:19.747Z,50.00
2017-03-24T14:58:17.141Z,49.33
2017-03-24T15:03:12.963Z,51.24
2017-03-24T15:08:08.482Z,52.08
2017-03-24T15:13:05.025Z,52.65
2017-03-24T15:18:01.201Z,53.96
2017-03-24T15:22:57.402Z,54.06
2017-03-24T15:27:53.345Z,54.13
2017-03-24T15:32:49.966Z,53.86
2017-03-24T15:37:46.219Z,53.93
2017-03-24T15:42:42.886Z,54.03
2017-03-24T15:47:40.147Z,53.84
2017-03-24T15:52:36.509Z,54.89
2017-03-24T15:57:33.034Z,53.74
2017-03-24T16:02:29.635Z,54.89
2017-03-24T16:07:26.422Z,54.70
2017-03-24T16:12:22.769Z,55.46
2017-03-24T16:17:19.146Z,55.46
2017-03-24T16:22:15.619Z,55.72
2017-03-24T16:27:12.041Z,56.29
2017-03-24T16:32:08.507Z,56.38
2017-03-24T16:37:04.554Z,56.10
2017-03-24T16:42:01.080Z,57.15
2017-03-24T16:46:57.619Z,57.34
2017-03-24T16:51:54.115Z,58.48
2017-03-24T16:56:50.523Z,58.94
2017-03-24T17:01:47.938Z,58.84
2017-03-24T17:06:44.084Z,59.03
2017-03-24T17:11:41.315Z,59.60
2017-03-24T17:16:37.545Z,59.31
2017-03-24T17:21:34.588Z,59.99
2017-03-24T17:26:31.003Z,60.52
2017-03-24T17:31:28.288Z,60.43
2017-03-24T17:36:24.624Z,60.81
2017-03-24T17:41:21.259Z,61.29
2017-03-24T17:46:17.674Z,61.67
2017-03-24T17:51:14.287Z,62.12
2017-03-24T17:56:10.981Z,61.83
2017-03-24T18:01:07.329Z,62.30
2017-03-24T18:06:04.042Z,62.49
2017-03-24T18:11:00.455Z,63.54
2017-03-24T18:15:56.662Z,63.64
2017-03-24T18:20:53.202Z,64.37
2017-03-24T18:25:50.311Z,64.84
2017-03-24T18:30:46.663Z,64.94
2017-03-24T18:35:43.883Z,64.37
2017-03-24T18:40:40.330Z,64.75
2017-03-24T18:45:38.043Z,65.42
2017-03-24T18:50:33.953Z,65.51
2017-03-24T18:55:30.149Z,66.53
2017-03-24T19:00:26.741Z,67.00
2017-03-24T19:05:22.952Z,67.10
2017-03-24T19:10:19.276Z,67.19
2017-03-24T19:15:15.726Z,67.95
2017-03-24T19:20:12.228Z,67.29
2017-03-24T19:25:08.994Z,67.76
2017-03-24T19:30:05.516Z,68.24
2017-03-24T19:35:01.865Z,69.15
2017-03-24T19:39:58.189Z,70.10
2017-03-24T19:44:54.748Z,69.82
2017-03-24T19:49:51.025Z,70.20
2017-03-24T19:54:47.398Z,69.73
2017-03-24T19:59:44.522Z,70.77
2017-03-24T20:04:41.051Z,70.01
2017-03-24T20:09:37.461Z,70.39
2017-03-24T20:14:33.860Z,70.20
2017-03-24T20:19:30.172Z,70.10
2017-03-24T20:24:27.219Z,70.10
2017-03-24T20:29:23.672Z,70.10
2017-03-24T20:34:20.103Z,70.93
2017-03-24T20:39:16.399Z,71.22
2017-03-24T20:44:12.809Z,71.22
2017-03-24T20:49:09.085Z,70.54
2017-03-24T20:54:05.481Z,71.31
2017-03-24T20:59:02.293Z,71.12
2017-03-24T21:03:59.604Z,71.22
2017-03-24T21:08:56.139Z,73.55
2017-03-24T21:13:52.886Z,73.46
2017-03-24T21:18:49.360Z,75.07
2017-03-24T21:23:45.689Z,74.41
2017-03-24T21:28:42.026Z,74.22
2017-03-24T21:33:39.105Z,73.93
2017-03-24T21:38:35.895Z,74.69
2017-03-24T21:43:32.365Z,74.98
2017-03-24T21:48:29.965Z,75.55
2017-03-24T21:53:26.527Z,76.03
2017-03-24T21:58:22.963Z,76.75
2017-03-24T22:03:19.353Z,76.18
2017-03-24T22:08:15.786Z,76.69
2017-03-24T22:13:12.226Z,76.37
2017-03-24T22:18:08.441Z,76.46
2017-03-24T22:23:04.775Z,77.31
2017-03-24T22:28:01.122Z,77.31
2017-03-24T22:32:57.432Z,78.27
2017-03-24T22:37:54.174Z,78.64
2017-03-24T22:42:50.854Z,79.41
2017-03-24T22:47:47.896Z,78.93
2017-03-24T22:52:44.218Z,79.03
2017-03-24T22:57:40.565Z,77.98
2017-03-24T23:02:36.953Z,78.74
2017-03-24T23:07:33.328Z,78.83
2017-03-24T23:12:30.173Z,79.31
2017-03-24T23:17:27.532Z,79.22
2017-03-24T23:22:23.537Z,79.60
2017-03-24T23:27:19.931Z,80.13
2017-03-24T23:32:16.471Z,80.69
2017-03-24T23:37:13.100Z,80.32
2017-03-24T23:42:09.288Z,80.88
2017-03-24T23:47:05.624Z,81.17
2017-03-24T23:52:02.065Z,80.88
2017-03-24T23:56:58.576Z,81.65
